WetterOnline ( http://www.wetteronline.de )

Wetter aktuell Würzburg

Aktuelles Wetter: Würzburg (272m)

6-stündlich | Neueste Meldungen
Ortszeit Temperatur Wetter
So, 17.02. 1:00 1.1° C wolkig
Sa, 16.02. 19:00 8.6° C wolkenlos
Sa, 16.02. 13:00 8.6° C wolkenlos
Sa, 16.02. 7:00 -1.4° C wolkenlos
Sa, 16.02. 1:00 1.3° C wolkenlos
Fr, 15.02. 19:00 7.8° C wolkenlos
Fr, 15.02. 13:00 8.2° C wolkenlos
Fr, 15.02. 7:00 -2.2° C wolkenlos
Ortszeit Temperatur Wetter
So, 17.02. 6:00 -1.4° C wolkig
So, 17.02. 5:40 -1.0° C wolkig
So, 17.02. 5:30 -1.3° C leicht bewölkt
So, 17.02. 5:20 -1.3° C leicht bewölkt
So, 17.02. 5:10 -1.2° C leicht bewölkt
So, 17.02. 5:00 -0.9° C fast wolkenlos
So, 17.02. 4:50 -0.9° C fast wolkenlos
So, 17.02. 4:30 -0.8° C fast wolkenlos
So, 17.02. 4:00 -0.2° C wolkenlos
So, 17.02. 3:30 -0.4° C wolkenlos
So, 17.02. 3:00 -0.3° C fast wolkenlos
Ortszeit Relative Feuchte Sichtweite
So, 17.02. 1:00 92% 6 km
Sa, 16.02. 19:00 64% 12 km
Sa, 16.02. 13:00 55% 13 km
Sa, 16.02. 7:00 93% 7 km
Sa, 16.02. 1:00 89% 8 km
Fr, 15.02. 19:00 68% 17 km
Fr, 15.02. 13:00 56% 25 km
Fr, 15.02. 7:00 94% 5.0 km
Ortszeit Relative Feuchte Sichtweite
So, 17.02. 6:00 96% 2.1 km
So, 17.02. 5:40 94% -
So, 17.02. 5:30 96% 1.8 km
So, 17.02. 5:20 96% -
So, 17.02. 5:10 96% -
So, 17.02. 5:00 95% 3.1 km
So, 17.02. 4:50 95% -
So, 17.02. 4:30 94% 3.0 km
So, 17.02. 4:00 93% 3.6 km
So, 17.02. 3:30 94% 3.4 km
So, 17.02. 3:00 93% 3.6 km
Ortszeit Niederschlagsmenge Niederschlagsart
So, 17.02. 1:00 0.0 l/m2 in 6 Std. -
Sa, 16.02. 19:00 0.0 l/m2 in 12 Std. -
Sa, 16.02. 13:00 0.0 l/m2 in 6 Std. -
Sa, 16.02. 7:00 0.0 l/m2 in 12 Std. -
Sa, 16.02. 1:00 0.0 l/m2 in 6 Std. -
Fr, 15.02. 19:00 0.0 l/m2 in 12 Std. -
Fr, 15.02. 13:00 0.0 l/m2 in 6 Std. -
Fr, 15.02. 7:00 0.0 l/m2 in 12 Std. -
Ortszeit Niederschlagsmenge Niederschlagsart
So, 17.02. 6:00 0.0 l/m2 in 1 Std. -
So, 17.02. 5:40 keine Meldung -
So, 17.02. 5:30 0.0 l/m2 in 1 Std. -
So, 17.02. 5:20 keine Meldung -
So, 17.02. 5:10 keine Meldung -
So, 17.02. 5:00 0.0 l/m2 in 1 Std. -
So, 17.02. 4:50 keine Meldung -
So, 17.02. 4:30 0.0 l/m2 in 1 Std. -
So, 17.02. 4:00 0.0 l/m2 in 1 Std. -
So, 17.02. 3:30 0.0 l/m2 in 1 Std. -
So, 17.02. 3:00 0.0 l/m2 in 1 Std. -
Ortszeit Stärke Spitze Richtung
km/h Bft. km/h Grad Sektor
So, 17.02. 1:00 2 1 9 320° NW
Sa, 16.02. 19:00 6 1 15 150° SO
Sa, 16.02. 13:00 6 1 20 180° S
Sa, 16.02. 7:00 4 1 11 90° O
Sa, 16.02. 1:00 2 1 9 350° N
Fr, 15.02. 19:00 4 1 18 70° O
Fr, 15.02. 13:00 9 2 13 120° SO
Fr, 15.02. 7:00 6 1 9 10° N
Ortszeit Stärke Spitze Richtung
km/h Bft. km/h Grad Sektor
So, 17.02. 6:00 2 1 4 310° NW
So, 17.02. 5:40 4 1 - 320° NW
So, 17.02. 5:30 0 0 4 - -
So, 17.02. 5:20 0 0 - - -
So, 17.02. 5:10 0 0 - - -
So, 17.02. 5:00 4 1 11 350° N
So, 17.02. 4:50 4 1 - 350° N
So, 17.02. 4:30 7 2 11 360° N
So, 17.02. 4:00 7 2 11 10° N
So, 17.02. 3:30 7 2 11 10° N
So, 17.02. 3:00 7 2 11 20° N
Ortszeit Untergrenze Bedeckung Gattung
total tief tief mittel hoch
So, 17.02. 1:00 10500 m 8/8 0/8 - - -
Sa, 16.02. 19:00 - 0/8 0/8 - - -
Sa, 16.02. 13:00 - 0/8 0/8 - - -
Sa, 16.02. 7:00 - 0/8 0/8 - - -
Sa, 16.02. 1:00 - 0/8 0/8 - - -
Fr, 15.02. 19:00 - 0/8 0/8 - - -
Fr, 15.02. 13:00 - 0/8 0/8 - - -
Fr, 15.02. 7:00 - 0/8 0/8 - - -
Ortszeit Bedeckungsgrad in Achtel und Wolkenuntergrenze
So, 17.02. 6:00 8(10500m)
So, 17.02. 5:40 7(10500m)
So, 17.02. 5:30 6(10500m)
So, 17.02. 5:20 6(10500m)
So, 17.02. 5:10 6(10500m)
So, 17.02. 5:00 2(10500m)
So, 17.02. 4:50 2(10500m)
So, 17.02. 4:30 1(10500m)
So, 17.02. 4:00 keine Wolken
So, 17.02. 3:30 keine Wolken
So, 17.02. 3:00 1(10500m)
Ortszeit Luftdruck NN (hPa) Tendenz (hPa in 3 Std.)
So, 17.02. 1:00 1029 - 0,3
Sa, 16.02. 19:00 1029 - 0,2
Sa, 16.02. 13:00 1030 - 0,8
Sa, 16.02. 7:00 1031 - 0,8
Sa, 16.02. 1:00 1033 - 0,6
Fr, 15.02. 19:00 1033 - 0,5
Fr, 15.02. 13:00 1036 - 1,0
Fr, 15.02. 7:00 1038 + 0,1
Ortszeit Luftdruck NN (hPa) Tendenz (hPa in 3 Std.)
So, 17.02. 6:00 1029 - 0,5
So, 17.02. 5:40 1029 keine Meldung
So, 17.02. 5:30 1029 - 0,3
So, 17.02. 5:20 1029 keine Meldung
So, 17.02. 5:10 1029 keine Meldung
So, 17.02. 5:00 1029 0,0
So, 17.02. 4:50 1029 keine Meldung
So, 17.02. 4:30 1029 - 0,2
So, 17.02. 4:00 1029 - 0,2
So, 17.02. 3:30 1029 - 0,4
So, 17.02. 3:00 1029 - 0,1
Ortszeit Schneehöhe (cm)
So, 17.02. 1:00 0
Sa, 16.02. 19:00 0
Sa, 16.02. 13:00 0
Sa, 16.02. 7:00 0
Sa, 16.02. 1:00 0
Fr, 15.02. 19:00 0
Fr, 15.02. 13:00 0
Fr, 15.02. 7:00 0
Ortszeit Schneehöhe (cm)
So, 17.02. 6:00 0
So, 17.02. 5:40 0
So, 17.02. 5:30 0
So, 17.02. 5:20 0
So, 17.02. 5:10 0
So, 17.02. 5:00 0
So, 17.02. 4:50 0
So, 17.02. 4:30 0
So, 17.02. 4:00 0
So, 17.02. 3:30 0
So, 17.02. 3:00 0
Link zu dieser Seite / Seite empfehlen

Das Wetter in ...